Terminal Aerodrome Forecast
Issued by NWS

Home | Current Version | Previous Version | Text Only | Print | Product List | Glossary On
Versions: 1 2 3 4 5 6 7 8 9 10 11 12 13 14 15 16 17 18 19 20 21 22 23 24 25 26 27 28 29 30 31 32 33 34 35 36 37 38 39 40 41 42 43 44 45 46 47 48 49 50
000
FTAK31 PANC 201148
TAFASD
TAF
PASD 201148Z 2012/2112 33010KT P6SM SKC
     FM202100 03011KT P6SM VCSH SCT025 OVC050
     FM210100 06012KT 4SM -SNRA BR SCT015 OVC035
     FM210800 09010KT 6SM -SHRA SCT010 OVC020=

USA.gov is the U.S. government's official web portal to all federal, state and local government web resources and services.